Terminal Aerodrome Forecast
Issued by NWS Detroit/Pontiac, MI

Home | Current Version | Previous Version | Text Only | Print | Product List | Glossary On
Versions: 1 2 3 4 5 6 7 8 9 10 11 12 13 14 15 16 17 18 19 20 21 22 23 24 25 26 27 28
000
FTUS43 KDTX 220919 AAB
TAFDTW
TAF AMD
KDTW 220919Z 2209/2312 04003KT P6SM SCT120 BKN250
     FM221400 16006KT P6SM FEW050 SCT250
     FM230600 VRB03KT 4SM BR FEW250
     FM230900 00000KT 1SM BR FEW002=

USA.gov is the U.S. government's official web portal to all federal, state and local government web resources and services.